Metar z połowy godziny Komunikat METAR ze strony awiacja.imgw.pl Metar G30 EPDE METAR EPDE 230800Z 09012KT 9999 BKN013 OVC015 M05/M08 Q1009 RMK M050 082 8/5=